Time;durP1;ratioP1;P1;durP2;ratioP2;P2;SDS_P1;SDS_P2;PMS_P1;PMS_P2;Temp;Humidity;BMP_temperature;BMP_pressure;BME280_temperature;BME280_humidity;BME280_pressure;Samples;Min_cycle;Max_cycle;Signal;HPM_P1;HPM_P2
2021/07/12 00:00:24;;;;;;;11.65;9.68;;;19.40;99.90;;;;;;5099739;28;20093;-72
2021/07/12 00:02:51;;;;;;;11.68;9.98;;;19.30;99.90;;;;;;5100240;28;20054;-72
2021/07/12 00:05:18;;;;;;;11.50;9.10;;;19.10;99.90;;;;;;5099676;28;20055;-72
2021/07/12 00:07:44;;;;;;;8.82;8.00;;;19.10;99.90;;;;;;5099673;28;20051;-72
2021/07/12 00:10:12;;;;;;;10.10;9.20;;;19.10;99.90;;;;;;5099556;28;20070;-71
2021/07/12 00:12:38;;;;;;;10.90;9.75;;;19.10;99.90;;;;;;5099564;28;20040;-72
2021/07/12 00:15:06;;;;;;;10.30;9.30;;;19.10;99.90;;;;;;5100230;28;20115;-72
2021/07/12 00:17:32;;;;;;;11.10;10.05;;;19.10;99.90;;;;;;5100574;28;20047;-72
2021/07/12 00:19:58;;;;;;;10.65;9.65;;;19.10;99.90;;;;;;5099245;28;20040;-71
2021/07/12 00:22:24;;;;;;;11.10;10.05;;;19.10;99.90;;;;;;5100223;28;20039;-71
2021/07/12 00:24:50;;;;;;;11.98;10.85;;;19.00;99.90;;;;;;5100033;28;20036;-72
2021/07/12 00:27:16;;;;;;;12.40;11.20;;;19.10;99.90;;;;;;5099493;28;20365;-72
2021/07/12 00:29:41;;;;;;;11.52;10.25;;;19.00;99.90;;;;;;5099963;28;20429;-72
2021/07/12 00:32:07;;;;;;;12.50;10.70;;;19.00;99.90;;;;;;5099720;28;20028;-72
2021/07/12 00:34:33;;;;;;;14.18;11.65;;;19.00;99.90;;;;;;5100142;28;20177;-72
2021/07/12 00:36:58;;;;;;;14.00;12.50;;;18.90;99.90;;;;;;5100338;28;20051;-72
2021/07/12 00:39:24;;;;;;;12.20;11.00;;;19.00;99.90;;;;;;5097290;28;20491;-71
2021/07/12 00:41:50;;;;;;;13.80;11.55;;;19.00;99.90;;;;;;5096453;28;20039;-72
2021/07/12 00:44:16;;;;;;;11.52;10.38;;;19.00;99.90;;;;;;5096370;28;20357;-71
2021/07/12 00:46:42;;;;;;;13.18;11.88;;;18.90;99.90;;;;;;5096097;28;20047;-72
2021/07/12 00:49:08;;;;;;;14.85;12.93;;;19.00;99.90;;;;;;5096121;28;20044;-71
2021/07/12 00:51:33;;;;;;;14.00;12.20;;;19.00;99.90;;;;;;5096241;28;20036;-72
2021/07/12 00:53:59;;;;;;;14.00;12.70;;;19.10;99.90;;;;;;5096037;28;20063;-72
2021/07/12 00:56:25;;;;;;;13.48;12.07;;;19.10;99.90;;;;;;5096188;28;20043;-71
2021/07/12 00:58:51;;;;;;;13.85;11.57;;;19.00;99.90;;;;;;5096252;28;20119;-71
2021/07/12 01:01:17;;;;;;;15.15;13.55;;;19.10;99.90;;;;;;5096038;28;20408;-72
2021/07/12 01:03:45;;;;;;;13.57;12.20;;;19.10;99.90;;;;;;5096463;28;20062;-72
2021/07/12 01:06:11;;;;;;;14.07;12.40;;;19.10;99.90;;;;;;5096786;28;20036;-72
2021/07/12 01:08:36;;;;;;;17.42;13.57;;;19.10;99.90;;;;;;5095568;28;20036;-71
2021/07/12 01:11:07;;;;;;;14.68;13.05;;;19.20;99.90;;;;;;5095958;28;20365;-71
2021/07/12 01:13:52;;;;;;;17.67;13.65;;;19.10;99.90;;;;;;5096146;28;20036;-72
2021/07/12 01:16:24;;;;;;;14.48;13.00;;;19.20;99.90;;;;;;5096298;28;20469;-72
2021/07/12 01:19:08;;;;;;;14.85;13.45;;;19.20;99.90;;;;;;5094207;28;20427;-72
2021/07/12 01:22:19;;;;;;;14.48;13.02;;;19.20;99.90;;;;;;5095880;28;20044;-72
2021/07/12 01:25:33;;;;;;;14.25;12.77;;;19.20;99.90;;;;;;5095975;28;20119;-72
2021/07/12 01:28:18;;;;;;;13.93;12.52;;;19.20;99.90;;;;;;5058583;28;20100;-72
2021/07/12 01:31:21;;;;;;;11.23;10.02;;;19.20;99.90;;;;;;5095058;28;20036;-71
2021/07/12 01:33:55;;;;;;;13.18;10.95;;;19.20;99.90;;;;;;5095375;28;20093;-72
2021/07/12 01:36:27;;;;;;;14.43;12.20;;;19.10;99.90;;;;;;5095702;28;20047;-72
2021/07/12 01:39:07;;;;;;;14.13;12.65;;;19.10;99.90;;;;;;5095141;28;20040;-71
2021/07/12 01:41:56;;;;;;;13.73;11.70;;;19.00;99.90;;;;;;5095006;28;20043;-71
2021/07/12 01:44:41;;;;;;;15.25;11.85;;;19.00;99.90;;;;;;5095072;28;20060;-71
2021/07/12 01:47:14;;;;;;;13.98;11.70;;;19.00;99.90;;;;;;5095328;28;20036;-72
2021/07/12 01:49:58;;;;;;;16.80;13.15;;;19.00;99.90;;;;;;5094754;28;20480;-72
2021/07/12 01:52:40;;;;;;;14.27;11.48;;;19.00;99.90;;;;;;5095339;28;20064;-72
2021/07/12 01:55:11;;;;;;;14.25;12.88;;;19.00;99.90;;;;;;5095311;28;20028;-71
2021/07/12 01:57:49;;;;;;;15.05;13.38;;;19.00;99.90;;;;;;5095015;28;20044;-71
2021/07/12 02:00:15;;;;;;;13.25;12.05;;;19.00;99.90;;;;;;5094504;28;20055;-72
2021/07/12 02:02:44;;;;;;;14.52;13.02;;;19.00;99.90;;;;;;5095183;28;20035;-72
2021/07/12 02:05:32;;;;;;;13.82;12.40;;;19.00;99.90;;;;;;5094746;28;20036;-71
2021/07/12 02:08:00;;;;;;;16.10;13.52;;;18.90;99.90;;;;;;5095149;28;20043;-71
2021/07/12 02:10:28;;;;;;;14.68;13.18;;;18.70;99.90;;;;;;5094419;28;20111;-71
2021/07/12 02:12:55;;;;;;;16.10;14.40;;;18.60;99.90;;;;;;5094610;28;20043;-72
2021/07/12 02:15:22;;;;;;;15.65;13.25;;;18.60;99.90;;;;;;5094617;28;20124;-72
2021/07/12 02:17:50;;;;;;;15.48;13.88;;;18.50;99.90;;;;;;5094771;28;20036;-72
2021/07/12 02:20:18;;;;;;;15.10;13.57;;;18.50;99.90;;;;;;5094122;28;20450;-72
2021/07/12 02:22:45;;;;;;;17.65;14.75;;;18.50;99.90;;;;;;5095071;28;20480;-72
2021/07/12 02:25:13;;;;;;;15.70;14.18;;;18.50;99.90;;;;;;5094890;28;20032;-72
2021/07/12 02:27:42;;;;;;;16.67;15.05;;;18.40;99.90;;;;;;5094165;28;20093;-72
2021/07/12 02:30:09;;;;;;;16.48;14.77;;;18.40;99.90;;;;;;5093891;28;20040;-71
2021/07/12 02:32:36;;;;;;;17.90;16.00;;;18.40;99.90;;;;;;5094158;28;20032;-72
2021/07/12 02:35:05;;;;;;;15.88;13.75;;;18.40;99.90;;;;;;5094405;28;20032;-71
2021/07/12 02:37:36;;;;;;;18.10;16.30;;;18.30;99.90;;;;;;5094706;28;20044;-72
2021/07/12 02:40:02;;;;;;;18.73;16.67;;;18.30;99.90;;;;;;5093831;28;20043;-71
2021/07/12 02:42:28;;;;;;;18.95;15.73;;;18.30;99.90;;;;;;5094158;28;20114;-72
2021/07/12 02:44:56;;;;;;;17.58;15.85;;;18.30;99.90;;;;;;5094213;28;20123;-72
2021/07/12 02:47:22;;;;;;;20.10;15.70;;;18.30;99.90;;;;;;5094269;28;20050;-72
2021/07/12 02:49:48;;;;;;;20.08;16.60;;;18.30;99.90;;;;;;5093668;28;20111;-71
2021/07/12 02:52:26;;;;;;;19.17;17.17;;;18.30;99.90;;;;;;5094426;28;20062;-72
2021/07/12 02:54:57;;;;;;;20.90;18.70;;;18.30;99.90;;;;;;5093749;28;20537;-71
2021/07/12 02:57:23;;;;;;;21.65;18.63;;;18.30;99.90;;;;;;5094166;28;20040;-72
2021/07/12 02:59:49;;;;;;;21.50;19.20;;;18.30;99.90;;;;;;5093428;28;20067;-71
2021/07/12 03:02:15;;;;;;;20.05;17.83;;;18.40;99.90;;;;;;5093588;28;20060;-71
2021/07/12 03:04:40;;;;;;;20.58;18.30;;;18.40;99.90;;;;;;5093516;28;20039;-72
2021/07/12 03:07:20;;;;;;;18.73;16.75;;;18.40;99.90;;;;;;5094100;28;20078;-71
2021/07/12 03:09:49;;;;;;;18.92;16.92;;;18.40;99.90;;;;;;5093232;28;20408;-72
2021/07/12 03:12:24;;;;;;;17.60;15.82;;;18.40;99.90;;;;;;5093559;28;20040;-72
2021/07/12 03:15:02;;;;;;;18.88;16.80;;;18.40;99.90;;;;;;5093723;28;20047;-72
2021/07/12 03:17:29;;;;;;;16.88;15.10;;;18.50;99.90;;;;;;5094297;28;20369;-72
2021/07/12 03:19:58;;;;;;;18.30;16.15;;;18.50;99.90;;;;;;5093284;28;20047;-72
2021/07/12 03:22:26;;;;;;;21.70;17.85;;;18.50;99.90;;;;;;5093809;28;20072;-72
2021/07/12 03:24:57;;;;;;;21.50;19.17;;;18.40;99.90;;;;;;5093868;28;20495;-72
2021/07/12 03:27:23;;;;;;;19.10;17.10;;;18.40;99.90;;;;;;5093409;28;20032;-72
2021/07/12 03:29:51;;;;;;;20.02;17.92;;;18.30;99.90;;;;;;5092878;28;20043;-71
2021/07/12 03:32:24;;;;;;;20.80;17.98;;;18.30;99.90;;;;;;5093332;28;20036;-71
2021/07/12 03:34:52;;;;;;;20.63;17.90;;;18.30;99.90;;;;;;5093313;28;20455;-71
2021/07/12 03:37:20;;;;;;;18.98;17.08;;;18.30;99.90;;;;;;5093611;28;20116;-71
2021/07/12 03:39:47;;;;;;;21.05;17.58;;;18.30;99.90;;;;;;5093119;28;20032;-71
2021/07/12 03:42:13;;;;;;;19.60;17.15;;;18.40;99.90;;;;;;5093195;28;20075;-71
2021/07/12 03:44:39;;;;;;;24.73;19.02;;;18.40;99.90;;;;;;5093225;28;20064;-72
2021/07/12 03:47:06;;;;;;;21.92;19.70;;;18.40;99.90;;;;;;5093875;28;20040;-72
2021/07/12 03:49:31;;;;;;;24.65;21.15;;;18.40;99.90;;;;;;5091778;28;20067;-71
2021/07/12 03:51:58;;;;;;;23.65;21.13;;;18.40;99.90;;;;;;5093638;28;20063;-71
2021/07/12 03:54:24;;;;;;;23.83;20.55;;;18.40;99.90;;;;;;5093281;28;20032;-71
2021/07/12 03:56:50;;;;;;;23.83;20.77;;;18.50;99.90;;;;;;5093427;28;20036;-71
2021/07/12 03:59:16;;;;;;;23.02;20.58;;;18.50;99.90;;;;;;5092830;28;20089;-72
2021/07/12 04:01:42;;;;;;;26.48;19.77;;;18.60;99.90;;;;;;5093217;28;20064;-71
2021/07/12 04:04:08;;;;;;;20.95;18.30;;;18.60;99.90;;;;;;5093040;28;20503;-72
2021/07/12 04:06:35;;;;;;;22.65;20.25;;;18.70;99.90;;;;;;5093622;28;20044;-71
2021/07/12 04:09:03;;;;;;;24.42;21.83;;;18.70;99.90;;;;;;5092797;28;20086;-71
2021/07/12 04:11:36;;;;;;;25.38;22.40;;;18.70;99.90;;;;;;5093066;28;20040;-72
2021/07/12 04:14:02;;;;;;;26.27;22.52;;;18.70;99.90;;;;;;5093505;28;20044;-71
2021/07/12 04:16:28;;;;;;;26.02;22.38;;;18.60;99.90;;;;;;5096551;28;20043;-71
2021/07/12 04:18:54;;;;;;;24.90;22.20;;;18.70;99.90;;;;;;5096737;28;20039;-72
2021/07/12 04:21:19;;;;;;;26.65;22.83;;;18.70;99.90;;;;;;5096572;28;20093;-71
2021/07/12 04:23:46;;;;;;;23.73;21.20;;;18.70;99.90;;;;;;5096968;28;20395;-72
2021/07/12 04:26:12;;;;;;;24.52;20.65;;;18.70;99.90;;;;;;5097220;28;20116;-72
2021/07/12 04:28:38;;;;;;;26.42;22.27;;;18.70;99.90;;;;;;5096545;28;20429;-72
2021/07/12 04:31:04;;;;;;;23.45;21.05;;;18.80;99.90;;;;;;5096899;28;20110;-71
2021/07/12 04:33:29;;;;;;;26.23;21.45;;;18.80;99.90;;;;;;5096419;28;20542;-70
2021/07/12 04:35:55;;;;;;;24.67;22.05;;;18.90;99.90;;;;;;5097141;28;20047;-72
2021/07/12 04:38:22;;;;;;;24.13;21.27;;;18.80;99.90;;;;;;5096946;28;20130;-71
2021/07/12 04:40:47;;;;;;;23.90;21.20;;;18.80;99.90;;;;;;5096014;28;20531;-72
2021/07/12 04:43:13;;;;;;;22.42;20.08;;;18.80;99.90;;;;;;5095186;28;20476;-71
2021/07/12 04:45:39;;;;;;;25.08;22.40;;;18.90;99.90;;;;;;5096455;28;20032;-70
2021/07/12 04:48:05;;;;;;;27.08;23.73;;;18.90;99.90;;;;;;5096632;28;20032;-71
2021/07/12 04:50:31;;;;;;;29.02;24.33;;;18.80;99.90;;;;;;5096068;28;20119;-71
2021/07/12 04:52:56;;;;;;;27.58;22.73;;;18.80;99.90;;;;;;5096874;28;20534;-71
2021/07/12 04:55:22;;;;;;;28.33;24.25;;;18.80;99.90;;;;;;5096769;28;20081;-71
2021/07/12 04:57:48;;;;;;;28.52;21.55;;;18.80;99.90;;;;;;5095996;28;20050;-72
2021/07/12 05:00:15;;;;;;;23.73;19.75;;;18.80;99.90;;;;;;5095651;28;20527;-71
2021/07/12 05:02:41;;;;;;;28.88;23.13;;;18.80;99.90;;;;;;5096459;28;20078;-71
2021/07/12 05:05:09;;;;;;;29.05;22.85;;;18.80;99.90;;;;;;5095953;28;20479;-71
2021/07/12 05:07:34;;;;;;;32.70;26.05;;;18.80;99.90;;;;;;5096412;28;20058;-70
2021/07/12 05:10:00;;;;;;;45.25;31.65;;;18.80;99.90;;;;;;5095603;28;20040;-70
2021/07/12 05:12:27;;;;;;;41.90;30.13;;;18.70;99.90;;;;;;5095591;28;20092;-71
2021/07/12 05:14:54;;;;;;;46.67;33.33;;;18.80;99.90;;;;;;5095898;28;20131;-71
2021/07/12 05:17:20;;;;;;;45.97;33.28;;;18.80;99.90;;;;;;5095984;28;20040;-71
2021/07/12 05:19:45;;;;;;;51.15;35.50;;;18.80;99.90;;;;;;5095249;28;20096;-71
2021/07/12 05:22:11;;;;;;;62.92;40.15;;;18.80;99.90;;;;;;5095419;28;20373;-70
2021/07/12 05:24:37;;;;;;;51.15;37.83;;;18.80;99.90;;;;;;5095629;28;20062;-71
2021/07/12 05:27:04;;;;;;;46.47;34.63;;;18.70;99.90;;;;;;5095035;28;20051;-71
2021/07/12 05:29:30;;;;;;;45.42;33.80;;;18.80;99.90;;;;;;5094078;28;20086;-71
2021/07/12 05:31:55;;;;;;;38.53;30.98;;;18.80;99.90;;;;;;5095632;28;20040;-70
2021/07/12 05:34:21;;;;;;;47.92;34.45;;;18.80;99.90;;;;;;5094414;28;20036;-71
2021/07/12 05:36:47;;;;;;;48.63;34.58;;;18.80;99.90;;;;;;5095612;28;20040;-70
2021/07/12 05:39:14;;;;;;;54.33;36.45;;;18.90;99.90;;;;;;5094917;28;20048;-71
2021/07/12 05:41:40;;;;;;;45.10;34.47;;;18.90;99.90;;;;;;5094934;27;20044;-71
2021/07/12 05:44:06;;;;;;;49.78;35.40;;;18.90;99.90;;;;;;5095389;28;20036;-71
2021/07/12 05:46:31;;;;;;;51.10;38.17;;;18.80;99.90;;;;;;5095045;28;20086;-71
2021/07/12 05:48:57;;;;;;;48.45;36.50;;;18.80;99.90;;;;;;5093365;28;20073;-71
2021/07/12 05:51:23;;;;;;;48.70;36.40;;;18.80;99.90;;;;;;5095120;28;20036;-71
2021/07/12 05:53:49;;;;;;;45.47;35.15;;;18.80;99.90;;;;;;5095152;28;20538;-70
2021/07/12 05:56:14;;;;;;;51.15;36.88;;;18.80;99.90;;;;;;5094866;28;20498;-71
2021/07/12 05:58:40;;;;;;;48.80;36.95;;;18.90;99.90;;;;;;5094613;28;20488;-71
2021/07/12 06:01:06;;;;;;;50.63;37.00;;;18.90;99.90;;;;;;5095232;28;20461;-71
2021/07/12 06:03:33;;;;;;;52.17;37.58;;;18.90;99.90;;;;;;5094992;28;20040;-71
2021/07/12 06:05:59;;;;;;;50.38;36.30;;;18.90;99.90;;;;;;5095194;28;20415;-71
2021/07/12 06:08:25;;;;;;;46.60;35.80;;;19.00;99.90;;;;;;5094513;28;20038;-71
2021/07/12 06:10:50;;;;;;;46.40;35.20;;;19.00;99.90;;;;;;5094507;28;20111;-71
2021/07/12 06:13:16;;;;;;;46.15;35.83;;;19.10;99.90;;;;;;5094809;28;20074;-70
2021/07/12 06:15:42;;;;;;;42.38;33.47;;;19.30;99.90;;;;;;5094666;28;20040;-70
2021/07/12 06:18:13;;;;;;;42.97;33.05;;;19.50;99.90;;;;;;5094709;28;20050;-69
2021/07/12 06:20:38;;;;;;;41.97;30.63;;;19.50;99.90;;;;;;5094111;28;20115;-70
2021/07/12 06:23:04;;;;;;;38.38;28.80;;;19.70;99.90;;;;;;5094467;28;20124;-70
2021/07/12 06:25:30;;;;;;;35.25;26.85;;;19.80;99.90;;;;;;5094622;28;20040;-71
2021/07/12 06:27:56;;;;;;;38.88;29.63;;;19.90;99.90;;;;;;5094643;28;20036;-71
2021/07/12 06:30:22;;;;;;;35.83;28.30;;;19.90;99.90;;;;;;5094422;28;20073;-71
2021/07/12 06:32:47;;;;;;;32.40;27.63;;;19.90;99.90;;;;;;5094155;28;20047;-71
2021/07/12 06:35:13;;;;;;;31.35;25.52;;;20.00;99.90;;;;;;5094243;28;20123;-70
2021/07/12 06:37:39;;;;;;;29.58;24.95;;;20.10;99.90;;;;;;5093283;28;20078;-70
2021/07/12 06:40:06;;;;;;;25.65;22.92;;;20.20;99.90;;;;;;5093787;28;20068;-71
2021/07/12 06:42:32;;;;;;;29.70;26.50;;;20.20;99.90;;;;;;5094108;28;20400;-71
2021/07/12 06:44:57;;;;;;;28.30;23.92;;;20.20;99.90;;;;;;5094457;28;20051;-71
2021/07/12 06:47:27;;;;;;;27.23;24.33;;;20.30;99.90;;;;;;5094480;28;20032;-71
2021/07/12 06:49:54;;;;;;;32.65;27.35;;;20.30;99.90;;;;;;5093546;28;20510;-71
2021/07/12 06:52:20;;;;;;;24.80;21.83;;;20.40;99.90;;;;;;5093953;28;20043;-71
2021/07/12 06:54:45;;;;;;;28.80;24.90;;;20.50;99.90;;;;;;5093869;28;20094;-71
2021/07/12 06:57:15;;;;;;;27.73;24.83;;;20.60;99.90;;;;;;5094091;28;20480;-71
2021/07/12 06:59:41;;;;;;;24.58;21.92;;;20.60;99.90;;;;;;5093655;28;20040;-71
2021/07/12 07:02:07;;;;;;;28.27;24.42;;;20.80;99.90;;;;;;5093820;28;20139;-71
2021/07/12 07:04:33;;;;;;;28.17;25.17;;;20.80;99.90;;;;;;5093953;28;20150;-71
2021/07/12 07:06:58;;;;;;;25.95;23.13;;;20.80;99.90;;;;;;5093764;28;20456;-71
2021/07/12 07:09:25;;;;;;;24.88;22.17;;;20.90;99.90;;;;;;5093395;28;20117;-71
2021/07/12 07:11:51;;;;;;;23.23;20.83;;;21.00;99.90;;;;;;5093850;28;20538;-71
2021/07/12 07:14:17;;;;;;;23.73;21.17;;;21.20;99.90;;;;;;5094297;28;20472;-71
2021/07/12 07:16:43;;;;;;;24.00;21.58;;;21.60;99.90;;;;;;5093686;28;20044;-71
2021/07/12 07:19:10;;;;;;;22.63;20.15;;;21.90;99.90;;;;;;5093250;28;20047;-71
2021/07/12 07:21:36;;;;;;;23.77;21.27;;;22.20;99.90;;;;;;5093611;28;20373;-71
2021/07/12 07:24:04;;;;;;;23.92;21.42;;;22.60;99.90;;;;;;5093861;28;20043;-71
2021/07/12 07:26:30;;;;;;;22.65;20.35;;;22.70;99.90;;;;;;5093981;28;20040;-72
2021/07/12 07:28:57;;;;;;;19.83;17.73;;;22.80;99.90;;;;;;5093116;28;20068;-70
2021/07/12 07:31:23;;;;;;;20.00;17.55;;;23.10;99.90;;;;;;5093488;28;20075;-70
2021/07/12 07:33:49;;;;;;;19.02;17.08;;;23.30;99.90;;;;;;5093358;28;20110;-70
2021/07/12 07:36:16;;;;;;;19.92;17.75;;;23.60;99.90;;;;;;5093509;28;20051;-70
2021/07/12 07:38:43;;;;;;;17.58;15.50;;;23.80;99.90;;;;;;5093315;28;20043;-70
2021/07/12 07:41:08;;;;;;;17.45;15.68;;;23.90;99.90;;;;;;5093284;28;20115;-70
2021/07/12 07:43:34;;;;;;;16.15;14.45;;;24.00;99.90;;;;;;5093715;28;20515;-71
2021/07/12 07:46:00;;;;;;;16.98;15.10;;;24.30;99.90;;;;;;5092548;28;20040;-71
2021/07/12 07:48:25;;;;;;;13.93;12.40;;;24.70;99.90;;;;;;5093265;28;20044;-72
2021/07/12 07:50:51;;;;;;;15.35;13.80;;;25.00;99.90;;;;;;5095971;28;20040;-72
2021/07/12 07:53:17;;;;;;;15.70;13.75;;;24.90;99.90;;;;;;5097475;28;20032;-72
2021/07/12 07:55:42;;;;;;;16.90;15.20;;;24.90;99.90;;;;;;5097864;28;20040;-72
2021/07/12 07:58:08;;;;;;;17.48;14.43;;;24.90;99.90;;;;;;5096550;28;20040;-72
2021/07/12 08:00:34;;;;;;;14.48;13.07;;;24.70;99.90;;;;;;5097273;28;20036;-72
2021/07/12 08:03:00;;;;;;;14.80;13.32;;;24.60;99.90;;;;;;5097201;28;20460;-72
2021/07/12 08:05:26;;;;;;;14.23;12.93;;;24.50;99.90;;;;;;5097055;28;20039;-72
2021/07/12 08:07:51;;;;;;;14.98;13.38;;;24.40;99.90;;;;;;5097036;28;20400;-72
2021/07/12 08:10:18;;;;;;;15.57;13.65;;;24.40;99.90;;;;;;5096470;28;20047;-72
2021/07/12 08:12:45;;;;;;;14.18;12.68;;;24.30;99.90;;;;;;5096829;28;20044;-72
2021/07/12 08:15:14;;;;;;;14.82;13.32;;;24.30;99.90;;;;;;5097414;28;20035;-72
2021/07/12 08:17:40;;;;;;;13.77;12.48;;;24.30;99.90;;;;;;5096970;28;20044;-72
2021/07/12 08:20:08;;;;;;;13.23;11.80;;;24.20;99.90;;;;;;5096334;28;20119;-72
2021/07/12 08:22:35;;;;;;;14.50;13.07;;;24.10;99.90;;;;;;5096698;28;20040;-72
2021/07/12 08:25:04;;;;;;;14.23;12.82;;;24.10;99.90;;;;;;5096823;28;20040;-72
2021/07/12 08:27:31;;;;;;;12.48;11.27;;;24.10;99.90;;;;;;5095372;28;20032;-70
2021/07/12 08:29:57;;;;;;;13.82;12.50;;;24.00;99.90;;;;;;5096117;28;20040;-70
2021/07/12 08:32:23;;;;;;;13.32;11.45;;;23.90;99.90;;;;;;5095429;28;20085;-71
2021/07/12 08:34:49;;;;;;;13.00;11.30;;;23.80;99.90;;;;;;5096873;28;20032;-70
2021/07/12 08:37:15;;;;;;;14.35;11.27;;;23.70;99.90;;;;;;5095204;28;20123;-71
2021/07/12 08:39:40;;;;;;;13.85;12.43;;;23.50;99.90;;;;;;5095034;28;20415;-70
2021/07/12 08:42:06;;;;;;;14.27;12.77;;;23.40;99.90;;;;;;5096419;28;20042;-71
2021/07/12 08:44:32;;;;;;;13.77;12.38;;;23.30;99.90;;;;;;5096503;28;20036;-70
2021/07/12 08:46:58;;;;;;;12.43;11.13;;;23.20;99.90;;;;;;5096361;28;20040;-71
2021/07/12 08:49:25;;;;;;;12.13;10.93;;;23.10;99.90;;;;;;5096689;28;20097;-72
2021/07/12 08:51:51;;;;;;;13.02;11.57;;;23.10;99.90;;;;;;5096402;28;20051;-72
2021/07/12 08:54:17;;;;;;;13.20;10.68;;;23.10;99.90;;;;;;5096861;28;20036;-72
2021/07/12 08:56:43;;;;;;;11.38;9.95;;;23.10;99.90;;;;;;5096762;28;20051;-72
2021/07/12 08:59:32;;;;;;;11.43;10.32;;;22.90;99.90;;;;;;5095946;28;20040;-72
2021/07/12 09:02:11;;;;;;;14.10;12.68;;;22.90;99.90;;;;;;5077668;28;20063;-72
2021/07/12 09:04:44;;;;;;;14.25;12.82;;;22.70;99.90;;;;;;5096605;28;20131;-72
2021/07/12 09:07:10;;;;;;;;;;;22.70;99.90;;;;;;5096512;28;20036;-72
2021/07/12 09:09:37;;;;;;;13.18;11.93;;;22.50;99.90;;;;;;5094437;28;19926;-72
2021/07/12 09:12:17;;;;;;;15.30;12.25;;;22.50;99.90;;;;;;5094621;28;20100;-72
2021/07/12 09:15:08;;;;;;;13.65;12.32;;;22.60;99.90;;;;;;5096417;28;20036;-72
2021/07/12 09:17:36;;;;;;;13.30;11.75;;;22.60;99.90;;;;;;5096103;28;20399;-72
2021/07/12 09:20:04;;;;;;;15.25;13.65;;;22.60;99.90;;;;;;5095225;28;20484;-71
2021/07/12 09:22:33;;;;;;;14.43;13.02;;;22.70;99.90;;;;;;5095550;28;20036;-72
2021/07/12 09:25:02;;;;;;;12.68;11.43;;;22.60;99.90;;;;;;5096023;28;20119;-72
2021/07/12 09:27:29;;;;;;;12.02;10.82;;;22.70;99.90;;;;;;5095718;28;20503;-72
2021/07/12 09:29:58;;;;;;;13.07;11.70;;;22.80;99.90;;;;;;5095065;28;20399;-72
2021/07/12 09:32:27;;;;;;;14.20;12.25;;;22.80;99.90;;;;;;5095652;28;20496;-72
2021/07/12 09:35:07;;;;;;;14.18;12.77;;;22.90;99.90;;;;;;5095409;28;20060;-72
2021/07/12 09:37:34;;;;;;;14.60;13.10;;;22.90;99.90;;;;;;5095794;28;20116;-72
2021/07/12 09:40:09;;;;;;;16.73;14.55;;;23.00;99.90;;;;;;5095586;28;20043;-72
2021/07/12 09:42:40;;;;;;;18.55;14.60;;;23.10;99.90;;;;;;5095339;28;20074;-72
2021/07/12 09:45:08;;;;;;;17.13;15.10;;;23.20;99.90;;;;;;5095296;28;20089;-72
2021/07/12 09:47:37;;;;;;;16.63;13.82;;;23.10;99.90;;;;;;5095098;28;20131;-72
2021/07/12 09:50:14;;;;;;;15.65;14.05;;;23.20;99.90;;;;;;5094716;28;20426;-72
2021/07/12 09:52:46;;;;;;;15.70;14.10;;;23.20;99.90;;;;;;5095649;28;20153;-72
2021/07/12 09:55:24;;;;;;;16.02;14.43;;;23.50;99.90;;;;;;5094927;28;20089;-72
2021/07/12 09:58:12;;;;;;;15.73;14.02;;;23.40;99.90;;;;;;5095413;28;20050;-72
2021/07/12 10:01:05;;;;;;;14.85;13.30;;;23.40;99.90;;;;;;5094451;28;20459;-72
2021/07/12 10:03:32;;;;;;;;;;;23.50;99.90;;;;;;5090935;28;20052;-72
2021/07/12 10:06:00;;;;;;;14.63;13.10;;;23.60;99.90;;;;;;5094805;28;19915;-72
2021/07/12 10:08:26;;;;;;;15.80;14.10;;;23.90;99.90;;;;;;5093660;28;20391;-72
2021/07/12 10:10:51;;;;;;;14.95;13.40;;;24.00;99.90;;;;;;5094913;28;20124;-72
2021/07/12 10:13:17;;;;;;;14.13;12.63;;;24.00;99.90;;;;;;5094513;28;20043;-72
2021/07/12 10:15:43;;;;;;;16.00;14.30;;;24.00;99.90;;;;;;5095111;28;20047;-72
2021/07/12 10:18:09;;;;;;;15.20;13.38;;;24.00;99.90;;;;;;5093932;28;20082;-71
2021/07/12 10:20:37;;;;;;;14.38;12.98;;;24.10;99.90;;;;;;5093523;27;20036;-74
2021/07/12 10:23:04;;;;;;;14.80;12.75;;;24.00;99.90;;;;;;5094442;28;20035;-73
2021/07/12 10:25:33;;;;;;;13.38;11.07;;;24.00;99.90;;;;;;5094494;28;20476;-73
2021/07/12 10:28:01;;;;;;;12.60;11.38;;;24.00;99.90;;;;;;5094890;28;20044;-72
2021/07/12 10:30:33;;;;;;;12.90;11.60;;;24.00;99.90;;;;;;5093843;28;20479;-72
2021/07/12 10:33:02;;;;;;;11.25;10.15;;;24.00;99.90;;;;;;5094651;28;20496;-71
2021/07/12 10:35:53;;;;;;;12.82;10.60;;;24.10;99.90;;;;;;5093954;28;20032;-72
2021/07/12 10:38:36;;;;;;;11.65;10.45;;;24.20;99.90;;;;;;5094514;28;20038;-72
2021/07/12 10:41:17;;;;;;;12.88;11.57;;;24.20;99.90;;;;;;5094284;28;20036;-72
2021/07/12 10:43:44;;;;;;;15.13;11.88;;;24.20;99.90;;;;;;5093137;28;20036;-73
2021/07/12 10:46:28;;;;;;;12.80;11.07;;;24.20;99.90;;;;;;5094256;28;20057;-74
2021/07/12 10:49:06;;;;;;;15.73;12.85;;;24.10;99.90;;;;;;5093882;28;20048;-72
2021/07/12 10:51:42;;;;;;;13.88;12.40;;;24.20;99.90;;;;;;5093772;28;20044;-72
2021/07/12 10:54:11;;;;;;;12.55;11.32;;;24.10;99.90;;;;;;5093953;28;20067;-72
2021/07/12 10:56:50;;;;;;;13.40;11.23;;;24.10;99.90;;;;;;5093933;28;20067;-72
2021/07/12 10:59:40;;;;;;;12.77;11.52;;;24.10;99.90;;;;;;5075931;28;20044;-72
2021/07/12 11:02:15;;;;;;;16.17;14.55;;;24.00;99.90;;;;;;5092649;28;20052;-73
2021/07/12 11:05:03;;;;;;;17.10;14.68;;;23.90;99.90;;;;;;5093890;28;20063;-72
2021/07/12 11:07:39;;;;;;;17.30;15.43;;;24.00;99.90;;;;;;5093721;28;20039;-72
2021/07/12 11:10:18;;;;;;;17.70;15.52;;;23.90;99.90;;;;;;5093492;28;20044;-72
2021/07/12 11:12:52;;;;;;;17.85;15.98;;;24.00;99.90;;;;;;5093813;28;20040;-72
2021/07/12 11:15:28;;;;;;;19.17;16.13;;;24.20;99.90;;;;;;5093787;28;20089;-71
2021/07/12 11:17:55;;;;;;;19.10;16.02;;;24.10;99.90;;;;;;5093627;27;20122;-73
2021/07/12 11:20:54;;;;;;;14.90;13.00;;;24.20;99.90;;;;;;5093038;28;20043;-72
2021/07/12 11:23:40;;;;;;;18.83;16.58;;;24.40;99.90;;;;;;5093294;28;20063;-72
2021/07/12 11:26:23;;;;;;;16.70;14.95;;;24.50;99.90;;;;;;5093698;28;20054;-71
2021/07/12 11:28:51;;;;;;;15.57;13.98;;;24.60;99.90;;;;;;5094873;28;20115;-73
2021/07/12 11:31:38;;;;;;;16.17;14.48;;;24.70;99.90;;;;;;5093844;28;20040;-73
2021/07/12 11:34:25;;;;;;;18.58;16.73;;;24.90;99.80;;;;;;5093392;28;20409;-72
2021/07/12 11:37:02;;;;;;;17.52;15.68;;;24.90;99.30;;;;;;5093823;28;20036;-72
2021/07/12 11:39:31;;;;;;;17.17;15.38;;;24.80;99.90;;;;;;5093499;28;20042;-73
2021/07/12 11:41:58;;;;;;;16.77;15.15;;;24.80;99.80;;;;;;5093696;28;20114;-73
2021/07/12 11:44:25;;;;;;;16.50;14.85;;;24.90;99.30;;;;;;5093402;28;20066;-73
2021/07/12 11:46:51;;;;;;;16.13;14.43;;;24.90;99.40;;;;;;5093208;28;20036;-73
2021/07/12 11:49:20;;;;;;;17.58;15.77;;;24.90;98.90;;;;;;5093197;28;20115;-73
2021/07/12 11:51:55;;;;;;;16.33;14.77;;;24.90;98.70;;;;;;5094050;28;20047;-73
2021/07/12 11:54:26;;;;;;;16.92;15.13;;;25.00;99.00;;;;;;5092220;28;20058;-73
2021/07/12 11:56:55;;;;;;;16.40;14.77;;;25.10;99.10;;;;;;5093125;28;20044;-72
2021/07/12 11:59:41;;;;;;;14.57;13.18;;;25.20;97.90;;;;;;5091892;28;20028;-72
2021/07/12 12:02:13;;;;;;;17.85;16.05;;;25.20;98.20;;;;;;5092990;28;20103;-73
2021/07/12 12:04:46;;;;;;;19.27;13.63;;;25.30;97.80;;;;;;5093500;28;20040;-73
2021/07/12 12:07:23;;;;;;;16.13;14.52;;;25.40;97.80;;;;;;5093499;28;20068;-72
2021/07/12 12:10:07;;;;;;;14.23;12.50;;;25.20;97.10;;;;;;5093211;28;20068;-73
2021/07/12 12:12:52;;;;;;;13.27;11.98;;;25.40;97.20;;;;;;5093075;28;20039;-73
2021/07/12 12:15:27;;;;;;;14.18;12.52;;;25.40;96.90;;;;;;5093630;28;20032;-72
2021/07/12 12:18:06;;;;;;;14.50;13.02;;;25.50;96.80;;;;;;5093282;28;20036;-73
2021/07/12 12:20:35;;;;;;;14.63;13.13;;;25.50;97.40;;;;;;5093048;28;20040;-73
2021/07/12 12:23:11;;;;;;;12.93;11.60;;;25.60;97.10;;;;;;5092850;28;20450;-73
2021/07/12 12:25:52;;;;;;;14.18;12.70;;;25.60;96.80;;;;;;5093010;28;20039;-72
2021/07/12 12:28:26;;;;;;;14.70;12.90;;;25.50;96.90;;;;;;5093205;28;20119;-73
2021/07/12 12:30:54;;;;;;;16.05;13.55;;;25.60;97.20;;;;;;5092888;28;20093;-71
2021/07/12 12:33:32;;;;;;;14.35;12.95;;;25.80;97.10;;;;;;5093701;28;20060;-72
2021/07/12 12:36:11;;;;;;;15.02;13.63;;;25.90;96.80;;;;;;5094226;28;20040;-72
2021/07/12 12:38:50;;;;;;;14.68;13.27;;;25.70;97.00;;;;;;5096451;28;20414;-73
2021/07/12 12:41:21;;;;;;;12.68;11.43;;;25.40;97.30;;;;;;5095877;28;20124;-71